sensor_id;sensor_type;location;lat;lon;timestamp;P1;durP1;ratioP1;P2;durP2;ratioP2
75073;SDS011;63652;51.526;5.080;2023-03-14T00:00:35;5.07;;;1.40;;
75073;SDS011;63652;51.526;5.080;2023-03-14T00:03:01;5.70;;;1.13;;
75073;SDS011;63652;51.526;5.080;2023-03-14T00:05:26;6.18;;;1.35;;
75073;SDS011;63652;51.526;5.080;2023-03-14T00:07:52;8.07;;;1.50;;
75073;SDS011;63652;51.526;5.080;2023-03-14T00:10:17;7.88;;;1.90;;
75073;SDS011;63652;51.526;5.080;2023-03-14T00:12:43;4.80;;;1.20;;
75073;SDS011;63652;51.526;5.080;2023-03-14T00:15:09;5.15;;;1.10;;
75073;SDS011;63652;51.526;5.080;2023-03-14T00:17:35;6.45;;;1.48;;
75073;SDS011;63652;51.526;5.080;2023-03-14T00:20:01;6.57;;;1.20;;
75073;SDS011;63652;51.526;5.080;2023-03-14T00:22:33;5.85;;;1.02;;
75073;SDS011;63652;51.526;5.080;2023-03-14T00:24:59;8.40;;;1.13;;
75073;SDS011;63652;51.526;5.080;2023-03-14T00:27:25;5.55;;;0.82;;
75073;SDS011;63652;51.526;5.080;2023-03-14T00:29:51;5.25;;;1.13;;
75073;SDS011;63652;51.526;5.080;2023-03-14T00:32:16;3.15;;;0.70;;
75073;SDS011;63652;51.526;5.080;2023-03-14T00:34:41;5.60;;;1.08;;
75073;SDS011;63652;51.526;5.080;2023-03-14T00:37:07;9.25;;;1.80;;
75073;SDS011;63652;51.526;5.080;2023-03-14T00:39:32;8.43;;;1.17;;
75073;SDS011;63652;51.526;5.080;2023-03-14T00:41:58;4.88;;;1.58;;
75073;SDS011;63652;51.526;5.080;2023-03-14T00:44:23;8.15;;;1.00;;
75073;SDS011;63652;51.526;5.080;2023-03-14T00:46:48;5.90;;;1.17;;
75073;SDS011;63652;51.526;5.080;2023-03-14T00:49:14;4.38;;;1.27;;
75073;SDS011;63652;51.526;5.080;2023-03-14T00:51:39;9.95;;;0.80;;
75073;SDS011;63652;51.526;5.080;2023-03-14T00:54:05;6.00;;;0.60;;
75073;SDS011;63652;51.526;5.080;2023-03-14T00:56:31;4.85;;;0.90;;
75073;SDS011;63652;51.526;5.080;2023-03-14T00:58:56;3.13;;;0.90;;
75073;SDS011;63652;51.526;5.080;2023-03-14T01:01:22;6.75;;;1.35;;
75073;SDS011;63652;51.526;5.080;2023-03-14T01:03:52;8.02;;;1.15;;
75073;SDS011;63652;51.526;5.080;2023-03-14T01:06:21;4.78;;;0.60;;
75073;SDS011;63652;51.526;5.080;2023-03-14T01:08:49;7.88;;;2.10;;
75073;SDS011;63652;51.526;5.080;2023-03-14T01:11:36;6.25;;;0.90;;
75073;SDS011;63652;51.526;5.080;2023-03-14T01:14:01;7.60;;;1.13;;
75073;SDS011;63652;51.526;5.080;2023-03-14T01:16:27;4.35;;;0.77;;
75073;SDS011;63652;51.526;5.080;2023-03-14T01:18:54;5.40;;;0.75;;
75073;SDS011;63652;51.526;5.080;2023-03-14T01:21:20;4.15;;;1.35;;
75073;SDS011;63652;51.526;5.080;2023-03-14T01:23:46;5.72;;;0.85;;
75073;SDS011;63652;51.526;5.080;2023-03-14T01:26:13;5.82;;;0.80;;
75073;SDS011;63652;51.526;5.080;2023-03-14T01:28:40;3.22;;;0.50;;
75073;SDS011;63652;51.526;5.080;2023-03-14T01:31:06;6.47;;;1.00;;
75073;SDS011;63652;51.526;5.080;2023-03-14T01:33:33;10.23;;;0.85;;
75073;SDS011;63652;51.526;5.080;2023-03-14T01:35:59;3.03;;;0.63;;
75073;SDS011;63652;51.526;5.080;2023-03-14T01:38:27;7.18;;;0.73;;
75073;SDS011;63652;51.526;5.080;2023-03-14T01:40:56;6.40;;;0.82;;
75073;SDS011;63652;51.526;5.080;2023-03-14T01:43:22;5.65;;;1.13;;
75073;SDS011;63652;51.526;5.080;2023-03-14T01:48:47;7.18;;;0.93;;
75073;SDS011;63652;51.526;5.080;2023-03-14T01:54:04;4.00;;;0.63;;
75073;SDS011;63652;51.526;5.080;2023-03-14T01:58:57;5.00;;;1.45;;
75073;SDS011;63652;51.526;5.080;2023-03-14T02:01:24;7.20;;;1.00;;
75073;SDS011;63652;51.526;5.080;2023-03-14T02:03:52;6.40;;;2.42;;
75073;SDS011;63652;51.526;5.080;2023-03-14T02:06:23;10.13;;;1.45;;
75073;SDS011;63652;51.526;5.080;2023-03-14T02:08:50;7.70;;;1.92;;
75073;SDS011;63652;51.526;5.080;2023-03-14T02:11:17;5.10;;;1.00;;
75073;SDS011;63652;51.526;5.080;2023-03-14T02:13:43;4.95;;;1.65;;
75073;SDS011;63652;51.526;5.080;2023-03-14T02:16:09;9.88;;;1.70;;
75073;SDS011;63652;51.526;5.080;2023-03-14T02:18:34;7.20;;;1.42;;
75073;SDS011;63652;51.526;5.080;2023-03-14T02:21:00;6.78;;;2.15;;
75073;SDS011;63652;51.526;5.080;2023-03-14T02:23:32;4.82;;;1.40;;
75073;SDS011;63652;51.526;5.080;2023-03-14T02:26:42;4.22;;;1.48;;
75073;SDS011;63652;51.526;5.080;2023-03-14T02:28:49;8.32;;;1.30;;
75073;SDS011;63652;51.526;5.080;2023-03-14T02:31:15;6.20;;;2.13;;
75073;SDS011;63652;51.526;5.080;2023-03-14T02:33:40;6.90;;;1.17;;
75073;SDS011;63652;51.526;5.080;2023-03-14T02:36:07;8.75;;;1.15;;
75073;SDS011;63652;51.526;5.080;2023-03-14T02:38:36;6.18;;;1.30;;
75073;SDS011;63652;51.526;5.080;2023-03-14T02:41:06;6.00;;;2.28;;
75073;SDS011;63652;51.526;5.080;2023-03-14T02:43:31;7.60;;;1.20;;
75073;SDS011;63652;51.526;5.080;2023-03-14T02:45:57;8.73;;;1.25;;
75073;SDS011;63652;51.526;5.080;2023-03-14T02:48:33;7.85;;;1.48;;
75073;SDS011;63652;51.526;5.080;2023-03-14T02:51:02;6.40;;;1.27;;
75073;SDS011;63652;51.526;5.080;2023-03-14T02:53:32;9.38;;;1.45;;
75073;SDS011;63652;51.526;5.080;2023-03-14T02:55:59;8.85;;;1.83;;
75073;SDS011;63652;51.526;5.080;2023-03-14T02:58:25;9.23;;;2.13;;
75073;SDS011;63652;51.526;5.080;2023-03-14T03:00:51;6.75;;;1.20;;
75073;SDS011;63652;51.526;5.080;2023-03-14T03:03:16;9.07;;;1.08;;
75073;SDS011;63652;51.526;5.080;2023-03-14T03:05:47;6.68;;;1.23;;
75073;SDS011;63652;51.526;5.080;2023-03-14T03:08:13;5.60;;;0.98;;
75073;SDS011;63652;51.526;5.080;2023-03-14T03:10:39;9.13;;;1.35;;
75073;SDS011;63652;51.526;5.080;2023-03-14T03:13:04;7.55;;;2.00;;
75073;SDS011;63652;51.526;5.080;2023-03-14T03:15:30;11.25;;;1.67;;
75073;SDS011;63652;51.526;5.080;2023-03-14T03:17:56;6.00;;;1.20;;
75073;SDS011;63652;51.526;5.080;2023-03-14T03:20:21;8.07;;;1.33;;
75073;SDS011;63652;51.526;5.080;2023-03-14T03:22:46;5.28;;;1.00;;
75073;SDS011;63652;51.526;5.080;2023-03-14T03:25:12;7.10;;;1.35;;
75073;SDS011;63652;51.526;5.080;2023-03-14T03:27:41;5.13;;;1.55;;
75073;SDS011;63652;51.526;5.080;2023-03-14T03:30:17;5.00;;;0.90;;
75073;SDS011;63652;51.526;5.080;2023-03-14T03:32:42;4.78;;;1.05;;
75073;SDS011;63652;51.526;5.080;2023-03-14T03:35:08;9.48;;;1.20;;
75073;SDS011;63652;51.526;5.080;2023-03-14T03:37:34;5.25;;;0.88;;
75073;SDS011;63652;51.526;5.080;2023-03-14T03:40:02;5.20;;;1.10;;
75073;SDS011;63652;51.526;5.080;2023-03-14T03:42:31;3.45;;;0.82;;
75073;SDS011;63652;51.526;5.080;2023-03-14T03:45:00;5.57;;;1.10;;
75073;SDS011;63652;51.526;5.080;2023-03-14T03:47:26;4.63;;;1.52;;
75073;SDS011;63652;51.526;5.080;2023-03-14T03:49:52;5.97;;;0.77;;
75073;SDS011;63652;51.526;5.080;2023-03-14T03:52:18;5.32;;;1.20;;
75073;SDS011;63652;51.526;5.080;2023-03-14T03:54:43;4.90;;;0.60;;
75073;SDS011;63652;51.526;5.080;2023-03-14T03:57:09;3.13;;;0.77;;
75073;SDS011;63652;51.526;5.080;2023-03-14T03:59:40;5.03;;;0.82;;
75073;SDS011;63652;51.526;5.080;2023-03-14T04:02:11;4.00;;;0.95;;
75073;SDS011;63652;51.526;5.080;2023-03-14T04:04:36;3.63;;;0.80;;
75073;SDS011;63652;51.526;5.080;2023-03-14T04:07:03;5.15;;;0.85;;
75073;SDS011;63652;51.526;5.080;2023-03-14T04:09:32;4.78;;;0.70;;
75073;SDS011;63652;51.526;5.080;2023-03-14T04:11:57;7.13;;;1.67;;
75073;SDS011;63652;51.526;5.080;2023-03-14T04:14:25;8.23;;;1.15;;
75073;SDS011;63652;51.526;5.080;2023-03-14T04:16:51;6.18;;;0.80;;
75073;SDS011;63652;51.526;5.080;2023-03-14T04:19:19;3.45;;;0.50;;
75073;SDS011;63652;51.526;5.080;2023-03-14T04:21:50;4.32;;;0.70;;
75073;SDS011;63652;51.526;5.080;2023-03-14T04:24:15;5.90;;;1.00;;
75073;SDS011;63652;51.526;5.080;2023-03-14T04:26:40;6.85;;;1.35;;
75073;SDS011;63652;51.526;5.080;2023-03-14T04:29:06;3.95;;;0.75;;
75073;SDS011;63652;51.526;5.080;2023-03-14T04:31:31;6.70;;;1.10;;
75073;SDS011;63652;51.526;5.080;2023-03-14T04:33:59;6.68;;;1.10;;
75073;SDS011;63652;51.526;5.080;2023-03-14T04:36:30;3.45;;;0.80;;
75073;SDS011;63652;51.526;5.080;2023-03-14T04:38:56;7.57;;;1.30;;
75073;SDS011;63652;51.526;5.080;2023-03-14T04:41:21;4.50;;;1.23;;
75073;SDS011;63652;51.526;5.080;2023-03-14T04:43:47;3.42;;;0.90;;
75073;SDS011;63652;51.526;5.080;2023-03-14T04:46:12;3.03;;;0.95;;
75073;SDS011;63652;51.526;5.080;2023-03-14T04:48:37;6.18;;;1.33;;
75073;SDS011;63652;51.526;5.080;2023-03-14T04:51:03;7.55;;;1.70;;
75073;SDS011;63652;51.526;5.080;2023-03-14T04:53:29;7.85;;;1.90;;
75073;SDS011;63652;51.526;5.080;2023-03-14T04:55:54;5.10;;;1.65;;
75073;SDS011;63652;51.526;5.080;2023-03-14T04:58:20;4.63;;;1.83;;
75073;SDS011;63652;51.526;5.080;2023-03-14T05:00:46;6.28;;;1.85;;
75073;SDS011;63652;51.526;5.080;2023-03-14T05:03:15;7.05;;;2.10;;
75073;SDS011;63652;51.526;5.080;2023-03-14T05:05:41;7.22;;;2.80;;
75073;SDS011;63652;51.526;5.080;2023-03-14T05:08:06;6.45;;;2.35;;
75073;SDS011;63652;51.526;5.080;2023-03-14T05:10:32;6.93;;;2.67;;
75073;SDS011;63652;51.526;5.080;2023-03-14T05:12:57;5.10;;;2.22;;
75073;SDS011;63652;51.526;5.080;2023-03-14T05:15:23;4.95;;;2.15;;
75073;SDS011;63652;51.526;5.080;2023-03-14T05:17:48;4.43;;;2.38;;
75073;SDS011;63652;51.526;5.080;2023-03-14T05:20:14;7.07;;;2.40;;
75073;SDS011;63652;51.526;5.080;2023-03-14T05:22:41;6.18;;;1.92;;
75073;SDS011;63652;51.526;5.080;2023-03-14T05:25:07;5.38;;;1.85;;
75073;SDS011;63652;51.526;5.080;2023-03-14T05:27:33;7.25;;;2.33;;
75073;SDS011;63652;51.526;5.080;2023-03-14T05:29:58;8.32;;;2.50;;
75073;SDS011;63652;51.526;5.080;2023-03-14T05:32:24;10.73;;;2.53;;
75073;SDS011;63652;51.526;5.080;2023-03-14T05:34:49;5.68;;;2.63;;
75073;SDS011;63652;51.526;5.080;2023-03-14T05:37:15;9.48;;;2.65;;
75073;SDS011;63652;51.526;5.080;2023-03-14T05:39:40;7.10;;;2.40;;
75073;SDS011;63652;51.526;5.080;2023-03-14T05:42:05;7.22;;;2.90;;
75073;SDS011;63652;51.526;5.080;2023-03-14T05:44:31;6.35;;;2.75;;
75073;SDS011;63652;51.526;5.080;2023-03-14T05:47:05;12.15;;;3.45;;
75073;SDS011;63652;51.526;5.080;2023-03-14T05:49:31;13.07;;;3.63;;
75073;SDS011;63652;51.526;5.080;2023-03-14T05:51:56;7.50;;;3.28;;
75073;SDS011;63652;51.526;5.080;2023-03-14T05:54:21;7.38;;;2.50;;
75073;SDS011;63652;51.526;5.080;2023-03-14T05:56:47;11.57;;;3.42;;
75073;SDS011;63652;51.526;5.080;2023-03-14T05:59:12;7.95;;;4.00;;
75073;SDS011;63652;51.526;5.080;2023-03-14T06:01:39;7.22;;;3.25;;
75073;SDS011;63652;51.526;5.080;2023-03-14T06:04:05;13.77;;;3.55;;
75073;SDS011;63652;51.526;5.080;2023-03-14T06:06:30;12.57;;;3.50;;
75073;SDS011;63652;51.526;5.080;2023-03-14T06:08:55;7.88;;;3.38;;
75073;SDS011;63652;51.526;5.080;2023-03-14T06:11:21;10.85;;;3.90;;
75073;SDS011;63652;51.526;5.080;2023-03-14T06:13:46;10.35;;;3.25;;
75073;SDS011;63652;51.526;5.080;2023-03-14T06:16:12;9.30;;;3.80;;
75073;SDS011;63652;51.526;5.080;2023-03-14T06:18:39;9.55;;;3.85;;
75073;SDS011;63652;51.526;5.080;2023-03-14T06:21:07;9.93;;;4.03;;
75073;SDS011;63652;51.526;5.080;2023-03-14T06:23:33;11.80;;;4.70;;
75073;SDS011;63652;51.526;5.080;2023-03-14T06:25:58;13.43;;;6.15;;
75073;SDS011;63652;51.526;5.080;2023-03-14T06:28:26;10.80;;;4.28;;
75073;SDS011;63652;51.526;5.080;2023-03-14T06:30:52;8.50;;;4.35;;
75073;SDS011;63652;51.526;5.080;2023-03-14T06:33:17;12.18;;;3.78;;
75073;SDS011;63652;51.526;5.080;2023-03-14T06:35:43;12.00;;;4.30;;
75073;SDS011;63652;51.526;5.080;2023-03-14T06:38:08;11.85;;;4.50;;
75073;SDS011;63652;51.526;5.080;2023-03-14T06:40:33;12.20;;;4.50;;
75073;SDS011;63652;51.526;5.080;2023-03-14T06:42:59;10.77;;;3.60;;
75073;SDS011;63652;51.526;5.080;2023-03-14T06:45:24;7.72;;;4.13;;
75073;SDS011;63652;51.526;5.080;2023-03-14T06:47:50;10.13;;;4.38;;
75073;SDS011;63652;51.526;5.080;2023-03-14T06:50:15;8.55;;;3.60;;
75073;SDS011;63652;51.526;5.080;2023-03-14T06:52:40;12.93;;;4.45;;
75073;SDS011;63652;51.526;5.080;2023-03-14T06:55:11;12.75;;;4.47;;
75073;SDS011;63652;51.526;5.080;2023-03-14T06:57:36;10.48;;;4.03;;
75073;SDS011;63652;51.526;5.080;2023-03-14T07:00:02;13.10;;;4.82;;
75073;SDS011;63652;51.526;5.080;2023-03-14T07:02:29;8.85;;;4.20;;
75073;SDS011;63652;51.526;5.080;2023-03-14T07:04:54;8.55;;;3.67;;
75073;SDS011;63652;51.526;5.080;2023-03-14T07:07:19;2.70;;;1.05;;
75073;SDS011;63652;51.526;5.080;2023-03-14T07:09:45;2.60;;;1.38;;
75073;SDS011;63652;51.526;5.080;2023-03-14T07:12:10;3.60;;;1.70;;
75073;SDS011;63652;51.526;5.080;2023-03-14T07:14:36;1.40;;;0.50;;
75073;SDS011;63652;51.526;5.080;2023-03-14T07:17:01;1.40;;;0.80;;
75073;SDS011;63652;51.526;5.080;2023-03-14T07:19:26;2.72;;;1.80;;
75073;SDS011;63652;51.526;5.080;2023-03-14T07:21:52;3.50;;;1.55;;
75073;SDS011;63652;51.526;5.080;2023-03-14T07:24:17;3.38;;;1.65;;
75073;SDS011;63652;51.526;5.080;2023-03-14T07:26:42;3.67;;;1.42;;
75073;SDS011;63652;51.526;5.080;2023-03-14T07:29:08;3.35;;;1.23;;
75073;SDS011;63652;51.526;5.080;2023-03-14T07:31:33;2.83;;;1.52;;
75073;SDS011;63652;51.526;5.080;2023-03-14T07:33:59;4.38;;;1.75;;
75073;SDS011;63652;51.526;5.080;2023-03-14T07:36:24;3.90;;;2.00;;
75073;SDS011;63652;51.526;5.080;2023-03-14T07:38:50;3.60;;;2.05;;
75073;SDS011;63652;51.526;5.080;2023-03-14T07:41:16;3.33;;;1.63;;
75073;SDS011;63652;51.526;5.080;2023-03-14T07:43:41;4.38;;;2.40;;
75073;SDS011;63652;51.526;5.080;2023-03-14T07:46:06;3.65;;;2.38;;
75073;SDS011;63652;51.526;5.080;2023-03-14T07:48:32;5.22;;;2.55;;
75073;SDS011;63652;51.526;5.080;2023-03-14T07:50:57;5.72;;;2.65;;
75073;SDS011;63652;51.526;5.080;2023-03-14T07:53:23;5.63;;;2.38;;
75073;SDS011;63652;51.526;5.080;2023-03-14T07:55:50;6.22;;;2.90;;
75073;SDS011;63652;51.526;5.080;2023-03-14T07:58:17;4.95;;;2.40;;
75073;SDS011;63652;51.526;5.080;2023-03-14T08:00:42;2.88;;;1.83;;
75073;SDS011;63652;51.526;5.080;2023-03-14T08:03:08;5.43;;;1.92;;
75073;SDS011;63652;51.526;5.080;2023-03-14T08:05:34;6.15;;;2.00;;
75073;SDS011;63652;51.526;5.080;2023-03-14T08:08:03;3.00;;;1.60;;
75073;SDS011;63652;51.526;5.080;2023-03-14T08:10:29;3.80;;;1.50;;
75073;SDS011;63652;51.526;5.080;2023-03-14T08:12:55;4.97;;;1.88;;
75073;SDS011;63652;51.526;5.080;2023-03-14T08:15:22;4.65;;;1.80;;
75073;SDS011;63652;51.526;5.080;2023-03-14T08:17:48;2.78;;;1.52;;
75073;SDS011;63652;51.526;5.080;2023-03-14T08:20:18;4.57;;;1.70;;
75073;SDS011;63652;51.526;5.080;2023-03-14T08:22:44;4.13;;;1.23;;
75073;SDS011;63652;51.526;5.080;2023-03-14T08:25:09;7.05;;;1.52;;
75073;SDS011;63652;51.526;5.080;2023-03-14T08:27:35;6.50;;;1.45;;
75073;SDS011;63652;51.526;5.080;2023-03-14T08:30:04;8.63;;;1.40;;
75073;SDS011;63652;51.526;5.080;2023-03-14T08:32:33;6.57;;;1.27;;
75073;SDS011;63652;51.526;5.080;2023-03-14T08:34:59;5.03;;;0.93;;
75073;SDS011;63652;51.526;5.080;2023-03-14T08:37:24;2.63;;;1.02;;
75073;SDS011;63652;51.526;5.080;2023-03-14T08:39:50;14.73;;;1.35;;
75073;SDS011;63652;51.526;5.080;2023-03-14T08:42:16;2.55;;;0.70;;
75073;SDS011;63652;51.526;5.080;2023-03-14T08:44:42;4.82;;;1.00;;
75073;SDS011;63652;51.526;5.080;2023-03-14T08:47:07;9.95;;;1.60;;
75073;SDS011;63652;51.526;5.080;2023-03-14T08:49:33;4.80;;;1.00;;
75073;SDS011;63652;51.526;5.080;2023-03-14T08:51:58;3.95;;;1.40;;
75073;SDS011;63652;51.526;5.080;2023-03-14T08:54:23;3.15;;;1.23;;
75073;SDS011;63652;51.526;5.080;2023-03-14T08:56:49;10.48;;;1.20;;
75073;SDS011;63652;51.526;5.080;2023-03-14T08:59:14;4.43;;;1.77;;
75073;SDS011;63652;51.526;5.080;2023-03-14T09:01:40;4.43;;;1.67;;
75073;SDS011;63652;51.526;5.080;2023-03-14T09:04:05;4.72;;;1.80;;
75073;SDS011;63652;51.526;5.080;2023-03-14T09:06:31;8.77;;;1.80;;
75073;SDS011;63652;51.526;5.080;2023-03-14T09:08:57;8.02;;;2.30;;
75073;SDS011;63652;51.526;5.080;2023-03-14T09:11:22;5.00;;;2.00;;
75073;SDS011;63652;51.526;5.080;2023-03-14T09:13:47;8.50;;;1.50;;
75073;SDS011;63652;51.526;5.080;2023-03-14T09:16:13;6.20;;;1.55;;
75073;SDS011;63652;51.526;5.080;2023-03-14T09:18:39;6.65;;;1.10;;
75073;SDS011;63652;51.526;5.080;2023-03-14T09:21:04;2.25;;;0.68;;
75073;SDS011;63652;51.526;5.080;2023-03-14T09:23:30;3.53;;;1.65;;
75073;SDS011;63652;51.526;5.080;2023-03-14T09:25:56;2.33;;;1.20;;
75073;SDS011;63652;51.526;5.080;2023-03-14T09:28:24;3.65;;;1.80;;
75073;SDS011;63652;51.526;5.080;2023-03-14T09:30:50;2.95;;;1.95;;
75073;SDS011;63652;51.526;5.080;2023-03-14T09:33:16;7.07;;;2.22;;
75073;SDS011;63652;51.526;5.080;2023-03-14T09:35:42;5.38;;;2.15;;
75073;SDS011;63652;51.526;5.080;2023-03-14T09:38:07;7.18;;;1.38;;
75073;SDS011;63652;51.526;5.080;2023-03-14T09:40:36;1.08;;;0.60;;
75073;SDS011;63652;51.526;5.080;2023-03-14T09:43:02;2.58;;;0.50;;
75073;SDS011;63652;51.526;5.080;2023-03-14T09:45:29;9.60;;;1.05;;
75073;SDS011;63652;51.526;5.080;2023-03-14T09:47:57;2.67;;;0.25;;
75073;SDS011;63652;51.526;5.080;2023-03-14T09:50:23;1.35;;;0.60;;
75073;SDS011;63652;51.526;5.080;2023-03-14T09:52:49;2.17;;;0.47;;
75073;SDS011;63652;51.526;5.080;2023-03-14T09:55:20;1.50;;;0.65;;
75073;SDS011;63652;51.526;5.080;2023-03-14T09:57:47;3.30;;;0.60;;
75073;SDS011;63652;51.526;5.080;2023-03-14T10:02:51;2.90;;;0.50;;
75073;SDS011;63652;51.526;5.080;2023-03-14T10:05:19;2.05;;;0.43;;
75073;SDS011;63652;51.526;5.080;2023-03-14T10:07:47;2.65;;;0.47;;
75073;SDS011;63652;51.526;5.080;2023-03-14T10:10:17;2.17;;;0.20;;
75073;SDS011;63652;51.526;5.080;2023-03-14T10:12:49;1.33;;;0.40;;
75073;SDS011;63652;51.526;5.080;2023-03-14T10:15:28;3.13;;;0.88;;
75073;SDS011;63652;51.526;5.080;2023-03-14T10:17:58;4.22;;;0.80;;
75073;SDS011;63652;51.526;5.080;2023-03-14T10:20:32;2.67;;;0.40;;
75073;SDS011;63652;51.526;5.080;2023-03-14T10:23:06;5.63;;;0.60;;
75073;SDS011;63652;51.526;5.080;2023-03-14T10:25:45;6.18;;;0.82;;
75073;SDS011;63652;51.526;5.080;2023-03-14T10:28:28;9.07;;;1.00;;
75073;SDS011;63652;51.526;5.080;2023-03-14T10:30:55;6.07;;;1.17;;
75073;SDS011;63652;51.526;5.080;2023-03-14T10:33:22;8.57;;;1.08;;
75073;SDS011;63652;51.526;5.080;2023-03-14T10:35:53;5.28;;;1.08;;
75073;SDS011;63652;51.526;5.080;2023-03-14T10:38:22;13.50;;;1.63;;
75073;SDS011;63652;51.526;5.080;2023-03-14T10:40:50;5.00;;;0.80;;
75073;SDS011;63652;51.526;5.080;2023-03-14T10:43:39;8.73;;;0.98;;
75073;SDS011;63652;51.526;5.080;2023-03-14T10:46:16;6.28;;;1.35;;
75073;SDS011;63652;51.526;5.080;2023-03-14T10:48:43;8.45;;;1.20;;
75073;SDS011;63652;51.526;5.080;2023-03-14T10:51:11;3.55;;;1.02;;
75073;SDS011;63652;51.526;5.080;2023-03-14T10:53:50;11.48;;;1.42;;
75073;SDS011;63652;51.526;5.080;2023-03-14T10:56:22;8.30;;;1.33;;
75073;SDS011;63652;51.526;5.080;2023-03-14T10:58:53;11.02;;;1.75;;
75073;SDS011;63652;51.526;5.080;2023-03-14T11:01:29;4.18;;;1.13;;
75073;SDS011;63652;51.526;5.080;2023-03-14T11:09:21;9.23;;;2.03;;
75073;SDS011;63652;51.526;5.080;2023-03-14T11:11:51;10.05;;;2.15;;
75073;SDS011;63652;51.526;5.080;2023-03-14T11:14:23;8.27;;;0.98;;
75073;SDS011;63652;51.526;5.080;2023-03-14T11:17:00;7.97;;;1.48;;
75073;SDS011;63652;51.526;5.080;2023-03-14T11:19:31;15.48;;;1.77;;
75073;SDS011;63652;51.526;5.080;2023-03-14T11:36:03;8.88;;;1.27;;
75073;SDS011;63652;51.526;5.080;2023-03-14T11:38:44;8.73;;;1.38;;
75073;SDS011;63652;51.526;5.080;2023-03-14T11:41:18;10.80;;;1.83;;
75073;SDS011;63652;51.526;5.080;2023-03-14T11:43:51;15.25;;;1.60;;
75073;SDS011;63652;51.526;5.080;2023-03-14T11:46:29;13.57;;;2.10;;
75073;SDS011;63652;51.526;5.080;2023-03-14T11:49:03;11.95;;;1.90;;
75073;SDS011;63652;51.526;5.080;2023-03-14T11:51:38;14.18;;;1.92;;
75073;SDS011;63652;51.526;5.080;2023-03-14T11:54:18;10.25;;;1.65;;
75073;SDS011;63652;51.526;5.080;2023-03-14T11:56:50;7.60;;;1.77;;
75073;SDS011;63652;51.526;5.080;2023-03-14T11:59:19;10.30;;;2.40;;
75073;SDS011;63652;51.526;5.080;2023-03-14T12:04:20;14.35;;;2.45;;
75073;SDS011;63652;51.526;5.080;2023-03-14T12:06:51;9.55;;;1.67;;
75073;SDS011;63652;51.526;5.080;2023-03-14T12:09:17;18.65;;;1.80;;
75073;SDS011;63652;51.526;5.080;2023-03-14T12:11:50;14.75;;;2.38;;
75073;SDS011;63652;51.526;5.080;2023-03-14T12:15:15;15.43;;;2.38;;
75073;SDS011;63652;51.526;5.080;2023-03-14T12:25:16;10.27;;;1.55;;
75073;SDS011;63652;51.526;5.080;2023-03-14T12:27:45;11.25;;;1.95;;
75073;SDS011;63652;51.526;5.080;2023-03-14T12:30:16;13.02;;;1.67;;
75073;SDS011;63652;51.526;5.080;2023-03-14T12:33:10;7.97;;;1.13;;
75073;SDS011;63652;51.526;5.080;2023-03-14T12:35:41;5.13;;;0.95;;
75073;SDS011;63652;51.526;5.080;2023-03-14T12:40:57;13.02;;;2.03;;
75073;SDS011;63652;51.526;5.080;2023-03-14T12:43:28;6.78;;;1.30;;
75073;SDS011;63652;51.526;5.080;2023-03-14T12:48:42;7.22;;;1.40;;
75073;SDS011;63652;51.526;5.080;2023-03-14T12:51:15;6.68;;;1.02;;
75073;SDS011;63652;51.526;5.080;2023-03-14T12:56:20;11.13;;;1.13;;
75073;SDS011;63652;51.526;5.080;2023-03-14T13:01:33;4.15;;;0.60;;
75073;SDS011;63652;51.526;5.080;2023-03-14T13:04:04;5.90;;;1.45;;
75073;SDS011;63652;51.526;5.080;2023-03-14T13:11:55;7.68;;;1.25;;
75073;SDS011;63652;51.526;5.080;2023-03-14T13:14:22;7.10;;;0.88;;
75073;SDS011;63652;51.526;5.080;2023-03-14T13:16:48;4.20;;;0.57;;
75073;SDS011;63652;51.526;5.080;2023-03-14T13:19:17;8.73;;;1.33;;
75073;SDS011;63652;51.526;5.080;2023-03-14T13:21:44;7.15;;;1.00;;
75073;SDS011;63652;51.526;5.080;2023-03-14T13:26:46;7.45;;;0.98;;
75073;SDS011;63652;51.526;5.080;2023-03-14T13:29:16;7.22;;;0.90;;
75073;SDS011;63652;51.526;5.080;2023-03-14T13:31:48;6.57;;;1.10;;
75073;SDS011;63652;51.526;5.080;2023-03-14T13:34:39;8.38;;;1.38;;
75073;SDS011;63652;51.526;5.080;2023-03-14T13:37:14;14.55;;;2.92;;
75073;SDS011;63652;51.526;5.080;2023-03-14T13:39:41;8.30;;;2.50;;
75073;SDS011;63652;51.526;5.080;2023-03-14T13:42:10;2.88;;;0.70;;
75073;SDS011;63652;51.526;5.080;2023-03-14T13:44:39;6.88;;;1.08;;
75073;SDS011;63652;51.526;5.080;2023-03-14T13:47:05;5.90;;;2.20;;
75073;SDS011;63652;51.526;5.080;2023-03-14T13:49:35;6.53;;;1.27;;
75073;SDS011;63652;51.526;5.080;2023-03-14T13:52:20;11.80;;;2.78;;
75073;SDS011;63652;51.526;5.080;2023-03-14T13:54:46;9.05;;;1.00;;
75073;SDS011;63652;51.526;5.080;2023-03-14T13:57:11;6.57;;;0.85;;
75073;SDS011;63652;51.526;5.080;2023-03-14T13:59:37;1.95;;;0.60;;
75073;SDS011;63652;51.526;5.080;2023-03-14T14:02:14;6.43;;;0.77;;
75073;SDS011;63652;51.526;5.080;2023-03-14T14:04:40;2.88;;;1.35;;
75073;SDS011;63652;51.526;5.080;2023-03-14T14:07:06;6.90;;;1.05;;
75073;SDS011;63652;51.526;5.080;2023-03-14T14:09:40;3.28;;;0.65;;
75073;SDS011;63652;51.526;5.080;2023-03-14T14:12:14;6.82;;;0.85;;
75073;SDS011;63652;51.526;5.080;2023-03-14T14:20:05;4.68;;;1.10;;
75073;SDS011;63652;51.526;5.080;2023-03-14T14:22:33;6.40;;;1.10;;
75073;SDS011;63652;51.526;5.080;2023-03-14T14:24:59;7.60;;;0.93;;
75073;SDS011;63652;51.526;5.080;2023-03-14T14:27:38;4.15;;;0.82;;
75073;SDS011;63652;51.526;5.080;2023-03-14T14:30:21;3.92;;;0.70;;
75073;SDS011;63652;51.526;5.080;2023-03-14T14:32:51;7.03;;;1.05;;
75073;SDS011;63652;51.526;5.080;2023-03-14T14:35:23;3.67;;;0.90;;
75073;SDS011;63652;51.526;5.080;2023-03-14T14:37:59;2.42;;;0.52;;
75073;SDS011;63652;51.526;5.080;2023-03-14T14:40:26;3.33;;;0.68;;
75073;SDS011;63652;51.526;5.080;2023-03-14T14:42:53;9.57;;;1.25;;
75073;SDS011;63652;51.526;5.080;2023-03-14T14:45:19;4.65;;;1.05;;
75073;SDS011;63652;51.526;5.080;2023-03-14T14:50:25;3.75;;;0.65;;
75073;SDS011;63652;51.526;5.080;2023-03-14T14:52:55;6.00;;;1.63;;
75073;SDS011;63652;51.526;5.080;2023-03-14T14:55:22;7.15;;;0.80;;
75073;SDS011;63652;51.526;5.080;2023-03-14T14:57:48;9.93;;;0.93;;
75073;SDS011;63652;51.526;5.080;2023-03-14T15:00:22;3.67;;;0.55;;
75073;SDS011;63652;51.526;5.080;2023-03-14T15:02:50;6.57;;;1.02;;
75073;SDS011;63652;51.526;5.080;2023-03-14T15:05:21;4.75;;;1.08;;
75073;SDS011;63652;51.526;5.080;2023-03-14T15:07:48;7.65;;;1.20;;
75073;SDS011;63652;51.526;5.080;2023-03-14T15:10:18;6.10;;;0.93;;
75073;SDS011;63652;51.526;5.080;2023-03-14T15:12:45;8.13;;;1.17;;
75073;SDS011;63652;51.526;5.080;2023-03-14T15:15:12;5.60;;;1.30;;
75073;SDS011;63652;51.526;5.080;2023-03-14T15:17:38;3.22;;;1.00;;
75073;SDS011;63652;51.526;5.080;2023-03-14T15:20:04;5.78;;;0.88;;
75073;SDS011;63652;51.526;5.080;2023-03-14T15:22:30;3.70;;;1.75;;
75073;SDS011;63652;51.526;5.080;2023-03-14T15:24:55;7.40;;;1.13;;
75073;SDS011;63652;51.526;5.080;2023-03-14T15:27:21;4.72;;;2.05;;
75073;SDS011;63652;51.526;5.080;2023-03-14T15:29:46;3.58;;;1.27;;
75073;SDS011;63652;51.526;5.080;2023-03-14T15:32:12;6.18;;;1.23;;
75073;SDS011;63652;51.526;5.080;2023-03-14T15:34:39;8.07;;;1.75;;
75073;SDS011;63652;51.526;5.080;2023-03-14T15:37:04;2.05;;;0.70;;
75073;SDS011;63652;51.526;5.080;2023-03-14T15:39:35;3.80;;;1.25;;
75073;SDS011;63652;51.526;5.080;2023-03-14T15:42:00;3.67;;;0.75;;
75073;SDS011;63652;51.526;5.080;2023-03-14T15:44:26;7.05;;;0.93;;
75073;SDS011;63652;51.526;5.080;2023-03-14T15:46:51;4.32;;;0.95;;
75073;SDS011;63652;51.526;5.080;2023-03-14T15:49:17;6.03;;;1.00;;
75073;SDS011;63652;51.526;5.080;2023-03-14T15:51:42;8.35;;;0.82;;
75073;SDS011;63652;51.526;5.080;2023-03-14T15:54:07;2.67;;;1.10;;
75073;SDS011;63652;51.526;5.080;2023-03-14T15:56:33;5.22;;;1.05;;